createdAt,value
2017-09-26T00:01:57.943Z,36.33
2017-09-26T00:04:25.346Z,33.73
2017-09-26T00:06:52.742Z,33.60
2017-09-26T00:09:20.143Z,33.03
2017-09-26T00:11:47.545Z,36.83
2017-09-26T00:14:14.938Z,31.60
2017-09-26T00:16:42.343Z,34.47
2017-09-26T00:19:09.744Z,36.30
2017-09-26T00:21:37.152Z,35.30
2017-09-26T00:24:04.554Z,34.70
2017-09-26T00:26:31.964Z,34.90
2017-09-26T00:28:59.383Z,38.00
2017-09-26T00:31:26.800Z,28.35
2017-09-26T00:33:54.204Z,29.93
2017-09-26T00:36:21.611Z,30.73
2017-09-26T00:38:50.835Z,26.40
2017-09-26T00:41:18.240Z,39.00
2017-09-26T00:43:45.635Z,32.33
2017-09-26T00:46:13.034Z,34.27
2017-09-26T00:48:40.441Z,33.07
2017-09-26T00:51:07.946Z,32.60
2017-09-26T00:53:35.337Z,32.70
2017-09-26T00:56:02.735Z,35.90
2017-09-26T00:58:30.135Z,29.57
2017-09-26T01:00:57.528Z,36.53
2017-09-26T01:03:24.935Z,29.00
2017-09-26T01:05:53.093Z,25.97
2017-09-26T01:08:20.495Z,27.30
2017-09-26T01:10:47.893Z,27.47
2017-09-26T01:13:15.294Z,27.13
2017-09-26T01:15:42.686Z,34.07
2017-09-26T01:18:10.086Z,28.83
2017-09-26T01:20:37.489Z,27.33
2017-09-26T01:23:04.899Z,32.90
2017-09-26T01:25:32.300Z,34.40
2017-09-26T01:27:59.701Z,30.10
2017-09-26T01:30:27.096Z,30.30
2017-09-26T01:32:54.603Z,26.80
2017-09-26T01:35:21.990Z,27.43
2017-09-26T01:37:49.403Z,28.20
2017-09-26T01:40:16.796Z,30.80
2017-09-26T01:42:44.199Z,30.67
2017-09-26T01:45:11.595Z,31.40
2017-09-26T01:47:39.059Z,26.67
2017-09-26T01:50:06.452Z,31.40
2017-09-26T01:52:33.850Z,29.90
2017-09-26T01:55:01.243Z,26.77
2017-09-26T01:57:30.967Z,29.90
2017-09-26T01:59:59.262Z,29.77
2017-09-26T02:02:26.755Z,31.43
2017-09-26T02:04:54.138Z,32.10
2017-09-26T02:07:21.535Z,29.80
2017-09-26T02:09:48.933Z,29.00
2017-09-26T02:12:16.328Z,30.50
2017-09-26T02:14:43.725Z,27.03
2017-09-26T02:17:11.124Z,28.60
2017-09-26T02:19:38.545Z,24.57
2017-09-26T02:22:05.938Z,21.80
2017-09-26T02:24:33.353Z,24.63
2017-09-26T02:27:00.742Z,26.10
2017-09-26T02:29:28.155Z,23.70
2017-09-26T02:31:55.542Z,26.60
2017-09-26T02:34:22.952Z,29.17
2017-09-26T02:36:50.342Z,25.73
2017-09-26T02:39:17.782Z,22.30
2017-09-26T02:41:45.171Z,28.17
2017-09-26T02:44:12.570Z,22.53
2017-09-26T02:46:39.969Z,21.50
2017-09-26T02:49:07.386Z,29.23
2017-09-26T02:51:34.770Z,22.20
2017-09-26T02:54:02.162Z,27.90
2017-09-26T02:56:29.566Z,25.37
2017-09-26T02:58:56.959Z,24.90
2017-09-26T03:01:24.362Z,27.27
2017-09-26T03:03:51.763Z,24.73
2017-09-26T03:06:19.167Z,21.60
2017-09-26T03:08:46.563Z,21.60
2017-09-26T03:11:13.959Z,26.60
2017-09-26T03:13:41.355Z,22.30
2017-09-26T03:16:08.754Z,26.10
2017-09-26T03:18:36.181Z,23.20
2017-09-26T03:21:03.583Z,29.57
2017-09-26T03:23:30.978Z,25.67
2017-09-26T03:25:58.374Z,26.47
2017-09-26T03:28:25.766Z,22.63
2017-09-26T03:30:53.166Z,27.90
2017-09-26T03:33:20.558Z,24.20
2017-09-26T03:35:48.937Z,24.60
2017-09-26T03:38:16.330Z,27.00
2017-09-26T03:40:43.740Z,27.77
2017-09-26T03:43:11.130Z,28.50
2017-09-26T03:45:38.530Z,28.73
2017-09-26T03:48:05.927Z,24.37
2017-09-26T03:50:33.321Z,29.07
2017-09-26T03:53:00.721Z,25.37
2017-09-26T03:55:28.107Z,19.67
2017-09-26T03:57:55.510Z,20.07
2017-09-26T04:00:22.906Z,27.03
2017-09-26T04:02:50.311Z,28.73
2017-09-26T04:05:17.703Z,24.77
2017-09-26T04:07:45.102Z,25.17
2017-09-26T04:10:12.491Z,25.67
2017-09-26T04:12:39.894Z,27.40
2017-09-26T04:15:07.296Z,28.63
2017-09-26T04:17:34.727Z,27.03
2017-09-26T04:20:02.128Z,26.80
2017-09-26T04:22:29.526Z,28.13
2017-09-26T04:24:56.923Z,22.20
2017-09-26T04:27:24.323Z,27.83
2017-09-26T04:29:51.716Z,27.03
2017-09-26T04:32:19.116Z,23.33
2017-09-26T04:34:46.510Z,21.63
2017-09-26T04:37:13.911Z,20.67
2017-09-26T04:39:41.308Z,22.03
2017-09-26T04:42:08.704Z,23.30
2017-09-26T04:44:36.106Z,20.33
2017-09-26T04:47:03.594Z,25.03
2017-09-26T04:49:30.990Z,27.50
2017-09-26T04:51:58.411Z,30.23
2017-09-26T04:54:25.808Z,24.30
2017-09-26T04:56:53.198Z,30.17
2017-09-26T04:59:20.609Z,29.47
2017-09-26T05:01:48.003Z,21.60
2017-09-26T05:04:15.403Z,28.43
2017-09-26T05:06:42.801Z,24.67
2017-09-26T05:09:10.207Z,27.47
2017-09-26T05:11:37.600Z,30.23
2017-09-26T05:14:04.998Z,28.23
2017-09-26T05:16:32.402Z,29.67
2017-09-26T05:18:59.819Z,25.60
2017-09-26T05:21:27.270Z,24.30
2017-09-26T05:23:54.679Z,21.23
2017-09-26T05:26:22.071Z,25.47
2017-09-26T05:28:49.470Z,29.40
2017-09-26T05:31:16.867Z,23.00
2017-09-26T05:33:44.262Z,26.70
2017-09-26T05:36:11.659Z,31.03
2017-09-26T05:38:39.131Z,30.60
2017-09-26T05:41:06.523Z,29.83
2017-09-26T05:43:33.914Z,28.83
2017-09-26T05:46:01.423Z,33.90
2017-09-26T05:48:28.880Z,33.10
2017-09-26T05:50:56.283Z,29.67
2017-09-26T05:53:23.673Z,32.60
2017-09-26T05:55:51.070Z,29.80
2017-09-26T05:58:18.488Z,31.57
2017-09-26T06:00:45.886Z,28.90
2017-09-26T06:03:13.288Z,31.43
2017-09-26T06:05:40.690Z,30.60
2017-09-26T06:08:08.091Z,30.10
2017-09-26T06:10:35.491Z,31.60
2017-09-26T06:13:02.890Z,35.07
2017-09-26T06:15:30.292Z,36.90
2017-09-26T06:17:57.750Z,38.67
2017-09-26T06:20:25.151Z,38.87
2017-09-26T06:22:52.548Z,37.80
2017-09-26T06:25:19.954Z,37.30
2017-09-26T06:27:47.351Z,31.87
2017-09-26T06:30:14.754Z,34.75
2017-09-26T06:32:42.151Z,34.50
2017-09-26T06:35:09.539Z,33.40
2017-09-26T06:37:36.942Z,33.60
2017-09-26T06:40:04.339Z,34.87
2017-09-26T06:42:31.752Z,30.17
2017-09-26T06:44:59.142Z,36.93
2017-09-26T06:47:26.541Z,34.60
2017-09-26T06:49:53.938Z,35.03
2017-09-26T06:52:21.334Z,39.40
2017-09-26T06:54:48.730Z,36.10
2017-09-26T06:57:16.127Z,38.40
2017-09-26T06:59:43.523Z,32.10
2017-09-26T07:02:10.932Z,35.17
2017-09-26T07:04:38.334Z,34.90
2017-09-26T07:07:05.750Z,32.63
2017-09-26T07:09:33.142Z,36.23
2017-09-26T07:12:00.551Z,38.37
2017-09-26T07:14:27.942Z,34.03
2017-09-26T07:16:55.343Z,35.00
2017-09-26T07:19:22.734Z,36.37
2017-09-26T07:21:50.134Z,36.20
2017-09-26T07:24:17.526Z,39.93
2017-09-26T07:26:44.930Z,35.60
2017-09-26T07:29:12.350Z,37.03
2017-09-26T07:31:39.767Z,37.90
2017-09-26T07:34:07.150Z,37.77
2017-09-26T07:36:34.552Z,36.60
2017-09-26T07:39:01.951Z,35.93
2017-09-26T07:41:29.343Z,37.90
2017-09-26T07:43:56.742Z,38.30
2017-09-26T07:46:24.135Z,34.73
2017-09-26T07:48:51.538Z,36.03
2017-09-26T07:51:18.930Z,35.50
2017-09-26T07:53:46.412Z,33.50
2017-09-26T07:56:13.800Z,32.90
2017-09-26T07:58:41.198Z,33.37
2017-09-26T08:01:08.734Z,33.93
2017-09-26T08:03:36.231Z,33.10
2017-09-26T08:06:03.750Z,33.40
2017-09-26T08:08:31.274Z,35.97
2017-09-26T08:10:58.714Z,33.57
2017-09-26T08:13:26.114Z,33.40
2017-09-26T08:15:53.526Z,31.90
2017-09-26T08:18:20.930Z,31.50
2017-09-26T08:20:48.322Z,31.47
2017-09-26T08:23:15.723Z,33.80
2017-09-26T08:25:43.118Z,31.10
2017-09-26T08:28:10.515Z,33.40
2017-09-26T08:30:37.914Z,29.60
2017-09-26T08:33:05.310Z,30.70
2017-09-26T08:35:32.710Z,32.43
2017-09-26T08:38:00.109Z,31.70
2017-09-26T08:40:27.515Z,29.40
2017-09-26T08:42:54.930Z,30.87
2017-09-26T08:45:22.390Z,27.67
2017-09-26T08:47:49.839Z,30.77
2017-09-26T08:50:17.234Z,28.57
2017-09-26T08:52:44.669Z,28.37
2017-09-26T08:55:12.050Z,30.13
2017-09-26T08:57:39.462Z,30.60
2017-09-26T09:00:06.862Z,30.23
2017-09-26T09:02:34.258Z,29.23
2017-09-26T09:05:01.661Z,29.07
2017-09-26T09:07:29.059Z,28.23
2017-09-26T09:09:56.451Z,29.73
2017-09-26T09:12:23.917Z,29.50
2017-09-26T09:14:51.308Z,29.10
2017-09-26T09:17:18.703Z,28.80
2017-09-26T09:19:46.102Z,31.53
2017-09-26T09:22:13.496Z,28.87
2017-09-26T09:24:40.903Z,30.50
2017-09-26T09:27:08.296Z,28.27
2017-09-26T09:29:35.694Z,29.97
2017-09-26T09:32:03.091Z,30.80
2017-09-26T09:34:30.599Z,30.80
2017-09-26T09:36:57.990Z,28.93
2017-09-26T09:39:25.403Z,29.50
2017-09-26T09:41:52.795Z,28.67
2017-09-26T09:44:20.190Z,28.87
2017-09-26T09:46:47.596Z,33.30
2017-09-26T09:49:14.995Z,30.13
2017-09-26T09:51:42.400Z,30.13
2017-09-26T09:54:09.795Z,28.80
2017-09-26T09:56:37.191Z,30.37
2017-09-26T09:59:04.583Z,32.13
2017-09-26T10:01:31.984Z,31.33
2017-09-26T10:03:59.378Z,32.60
2017-09-26T10:06:26.784Z,31.23
2017-09-26T10:08:54.179Z,33.87
2017-09-26T10:11:21.633Z,31.00
2017-09-26T10:13:49.027Z,30.50
2017-09-26T10:16:16.418Z,28.00
2017-09-26T10:18:43.818Z,29.37
2017-09-26T10:21:11.221Z,29.47
2017-09-26T10:23:38.620Z,28.30
2017-09-26T10:26:06.014Z,30.97
2017-09-26T10:28:33.425Z,32.60
2017-09-26T10:31:00.814Z,30.10
2017-09-26T10:33:28.231Z,31.50
2017-09-26T10:35:55.626Z,30.00
2017-09-26T10:38:23.042Z,30.33
2017-09-26T10:40:50.438Z,29.73
2017-09-26T10:43:17.842Z,29.53
2017-09-26T10:45:45.242Z,29.90
2017-09-26T10:48:12.643Z,28.93
2017-09-26T10:50:40.031Z,27.63
2017-09-26T10:53:07.434Z,29.57
2017-09-26T10:55:34.838Z,27.00
2017-09-26T10:58:02.286Z,28.00
2017-09-26T11:00:29.750Z,30.53
2017-09-26T11:02:57.149Z,30.17
2017-09-26T11:05:24.564Z,29.87
2017-09-26T11:07:51.972Z,30.87
2017-09-26T11:10:19.354Z,30.83
2017-09-26T11:12:46.758Z,31.67
2017-09-26T11:15:14.156Z,28.93
2017-09-26T11:17:41.558Z,30.77
2017-09-26T11:20:08.959Z,29.83
2017-09-26T11:22:36.367Z,28.70
2017-09-26T11:25:03.767Z,29.47
2017-09-26T11:27:31.159Z,27.87
2017-09-26T11:29:58.625Z,29.40
2017-09-26T11:32:26.038Z,30.47
2017-09-26T11:34:53.435Z,30.17
2017-09-26T11:37:20.853Z,31.37
2017-09-26T11:39:48.338Z,31.50
2017-09-26T11:42:15.742Z,29.77
2017-09-26T11:44:43.142Z,30.97
2017-09-26T11:47:10.538Z,30.40
2017-09-26T11:49:37.942Z,32.47
2017-09-26T11:52:06.346Z,32.63
2017-09-26T11:54:33.746Z,31.73
2017-09-26T11:57:01.155Z,33.10
2017-09-26T11:59:28.554Z,32.87
2017-09-26T12:01:55.950Z,33.33
2017-09-26T12:04:23.354Z,34.93
2017-09-26T12:06:50.795Z,33.40
2017-09-26T12:11:42.595Z,30.87
2017-09-26T12:14:10.690Z,31.53
2017-09-26T12:16:38.082Z,31.83
2017-09-26T12:19:05.478Z,33.97
2017-09-26T12:21:32.967Z,32.50
2017-09-26T12:24:00.366Z,37.03
2017-09-26T12:26:27.767Z,35.03
2017-09-26T12:28:55.155Z,31.73
2017-09-26T12:31:22.557Z,34.47
2017-09-26T12:33:49.946Z,34.30
2017-09-26T12:36:17.346Z,35.50
2017-09-26T12:38:44.742Z,34.73
2017-09-26T12:41:12.146Z,37.43
2017-09-26T12:43:39.538Z,33.50
2017-09-26T12:46:06.938Z,33.73
2017-09-26T12:48:34.445Z,35.17
2017-09-26T12:51:01.847Z,35.83
2017-09-26T12:53:29.239Z,32.67
2017-09-26T12:55:56.643Z,31.70
2017-09-26T12:58:24.169Z,30.73
2017-09-26T13:00:51.566Z,31.07
2017-09-26T13:03:19.018Z,30.40
2017-09-26T13:05:46.466Z,30.03
2017-09-26T13:08:13.866Z,31.40
2017-09-26T13:10:41.267Z,32.20
2017-09-26T13:13:08.666Z,30.70
2017-09-26T13:15:36.070Z,31.10
2017-09-26T13:18:03.463Z,29.10
2017-09-26T13:20:30.862Z,28.57
2017-09-26T13:22:58.254Z,29.40
2017-09-26T13:25:25.654Z,28.67
2017-09-26T13:27:53.062Z,27.93
2017-09-26T13:30:20.532Z,27.50
2017-09-26T13:32:47.955Z,30.83
2017-09-26T13:35:15.350Z,30.17
2017-09-26T13:37:42.752Z,27.27
2017-09-26T13:40:10.140Z,25.00
2017-09-26T13:42:37.542Z,24.90
2017-09-26T13:45:04.934Z,26.23
2017-09-26T13:47:32.356Z,26.40
2017-09-26T13:49:59.754Z,24.87
2017-09-26T13:52:27.151Z,25.80
2017-09-26T13:54:54.542Z,25.07
2017-09-26T13:57:21.943Z,24.93
2017-09-26T13:59:49.334Z,24.50
2017-09-26T14:02:16.745Z,24.77
2017-09-26T14:04:44.146Z,23.50
2017-09-26T14:07:11.547Z,25.40
2017-09-26T14:09:39.040Z,22.00
2017-09-26T14:12:06.443Z,23.50
2017-09-26T14:14:33.939Z,22.67
2017-09-26T14:17:01.331Z,23.07
2017-09-26T14:19:28.768Z,22.43
2017-09-26T14:21:56.154Z,22.03
2017-09-26T14:24:23.556Z,23.20
2017-09-26T14:26:50.954Z,20.63
2017-09-26T14:29:18.373Z,19.73
2017-09-26T14:31:45.770Z,20.23
2017-09-26T14:34:13.203Z,22.30
2017-09-26T14:36:40.605Z,20.90
2017-09-26T14:39:08.005Z,20.10
2017-09-26T14:41:35.398Z,22.37
2017-09-26T14:44:02.794Z,20.20
2017-09-26T14:46:30.190Z,20.53
2017-09-26T14:48:57.597Z,21.10
2017-09-26T14:51:24.987Z,21.93
2017-09-26T14:53:52.390Z,20.50
2017-09-26T14:56:19.782Z,20.83
2017-09-26T14:58:47.190Z,21.93
2017-09-26T15:01:14.586Z,21.67
2017-09-26T15:03:41.986Z,22.47
2017-09-26T15:06:09.383Z,20.90
2017-09-26T15:08:36.785Z,22.67
2017-09-26T15:11:04.178Z,22.00
2017-09-26T15:13:31.688Z,21.17
2017-09-26T15:15:59.082Z,21.83
2017-09-26T15:18:26.482Z,23.10
2017-09-26T15:20:53.920Z,21.60
2017-09-26T15:23:21.413Z,24.00
2017-09-26T15:25:48.872Z,22.77
2017-09-26T15:28:16.269Z,23.57
2017-09-26T15:30:43.673Z,21.63
2017-09-26T15:33:11.147Z,22.43
2017-09-26T15:35:38.535Z,22.80
2017-09-26T15:38:05.934Z,21.50
2017-09-26T15:40:33.402Z,23.23
2017-09-26T15:43:00.799Z,23.33
2017-09-26T15:45:28.214Z,23.70
2017-09-26T15:47:55.607Z,25.00
2017-09-26T15:50:23.014Z,24.90
2017-09-26T15:52:50.496Z,25.87
2017-09-26T15:55:17.885Z,25.77
2017-09-26T15:57:45.282Z,25.00
2017-09-26T16:00:12.685Z,25.57
2017-09-26T16:02:40.094Z,24.20
2017-09-26T16:05:07.495Z,24.60
2017-09-26T16:07:34.898Z,23.60
2017-09-26T16:10:02.299Z,24.40
2017-09-26T16:12:29.717Z,26.53
2017-09-26T16:14:57.099Z,26.80
2017-09-26T16:17:24.522Z,25.20
2017-09-26T16:19:52.006Z,25.17
2017-09-26T16:22:19.402Z,26.43
2017-09-26T16:24:46.809Z,27.43
2017-09-26T16:27:14.203Z,28.47
2017-09-26T16:29:41.610Z,28.10
2017-09-26T16:32:09.007Z,27.20
2017-09-26T16:34:36.407Z,28.10
2017-09-26T16:37:03.807Z,27.80
2017-09-26T16:39:31.199Z,29.50
2017-09-26T16:41:58.603Z,29.57
2017-09-26T16:44:26.010Z,27.60
2017-09-26T16:46:53.522Z,25.90
2017-09-26T16:49:20.987Z,27.53
2017-09-26T16:51:48.383Z,29.70
2017-09-26T16:54:15.786Z,29.93
2017-09-26T16:56:43.194Z,30.13
2017-09-26T16:59:10.624Z,29.10
2017-09-26T17:01:38.007Z,29.20
2017-09-26T17:04:05.398Z,30.07
2017-09-26T17:06:32.806Z,26.47
2017-09-26T17:09:00.222Z,28.60
2017-09-26T17:11:27.620Z,29.13
2017-09-26T17:13:55.045Z,29.27
2017-09-26T17:16:22.423Z,29.20
2017-09-26T17:18:49.822Z,30.27
2017-09-26T17:21:17.298Z,30.30
2017-09-26T17:23:44.702Z,29.37
2017-09-26T17:26:12.110Z,32.80
2017-09-26T17:28:39.509Z,35.00
2017-09-26T17:31:06.906Z,32.00
2017-09-26T17:33:34.302Z,31.40
2017-09-26T17:36:01.694Z,33.30
2017-09-26T17:38:29.090Z,32.87
2017-09-26T17:40:56.558Z,33.20
2017-09-26T17:43:23.968Z,34.63
2017-09-26T17:45:51.368Z,33.70
2017-09-26T17:48:18.766Z,37.60
2017-09-26T17:50:46.163Z,34.00
2017-09-26T17:53:13.563Z,36.33
2017-09-26T17:55:40.950Z,37.60
2017-09-26T17:58:08.380Z,39.10
2017-09-26T18:00:35.808Z,33.40
2017-09-26T18:03:03.198Z,34.33
2017-09-26T18:05:30.707Z,37.40
2017-09-26T18:07:58.115Z,38.60
2017-09-26T18:10:25.514Z,34.90
2017-09-26T18:12:52.902Z,32.73
2017-09-26T18:15:20.303Z,29.57
2017-09-26T18:17:47.787Z,24.70
2017-09-26T18:20:15.190Z,28.53
2017-09-26T18:22:42.583Z,27.93
2017-09-26T18:25:09.974Z,28.37
2017-09-26T18:27:37.385Z,27.17
2017-09-26T18:30:04.861Z,26.57
2017-09-26T18:32:32.271Z,27.53
2017-09-26T18:34:59.674Z,28.27
2017-09-26T18:37:27.075Z,28.43
2017-09-26T18:39:54.474Z,28.63
2017-09-26T18:42:21.870Z,25.87
2017-09-26T18:44:49.270Z,27.60
2017-09-26T18:47:16.669Z,32.90
2017-09-26T18:49:44.063Z,29.90
2017-09-26T18:52:11.567Z,32.63
2017-09-26T18:54:38.967Z,30.60
2017-09-26T18:57:06.426Z,31.80
2017-09-26T18:59:33.835Z,32.70
2017-09-26T19:02:01.396Z,33.60
2017-09-26T19:04:28.782Z,35.73
2017-09-26T19:06:56.182Z,34.23
2017-09-26T19:09:23.578Z,37.10
2017-09-26T19:11:50.986Z,36.07
2017-09-26T19:14:18.388Z,34.90
2017-09-26T19:16:45.870Z,34.37
2017-09-26T19:19:13.258Z,32.50
2017-09-26T19:21:40.760Z,35.37
2017-09-26T19:24:08.178Z,36.37
2017-09-26T19:26:35.571Z,37.87
2017-09-26T19:29:02.970Z,38.33
2017-09-26T19:31:30.626Z,38.93
2017-09-26T19:33:58.192Z,36.37
2017-09-26T19:36:25.650Z,40.27
2017-09-26T19:38:53.046Z,36.93
2017-09-26T19:41:20.454Z,36.23
2017-09-26T19:43:47.848Z,32.07
2017-09-26T19:46:15.251Z,39.50
2017-09-26T19:48:42.650Z,37.27
2017-09-26T19:51:10.055Z,39.40
2017-09-26T19:53:37.562Z,34.33
2017-09-26T19:56:04.966Z,38.03
2017-09-26T19:58:32.371Z,40.40
2017-09-26T20:00:59.764Z,33.50
2017-09-26T20:03:27.262Z,38.90
2017-09-26T20:05:54.660Z,38.93
2017-09-26T20:08:22.061Z,33.60
2017-09-26T20:10:49.460Z,31.10
2017-09-26T20:13:16.858Z,31.73
2017-09-26T20:15:44.261Z,30.20
2017-09-26T20:18:11.662Z,26.97
2017-09-26T20:20:39.054Z,28.30
2017-09-26T20:23:06.458Z,29.63
2017-09-26T20:25:33.880Z,28.57
2017-09-26T20:28:01.280Z,31.03
2017-09-26T20:30:28.687Z,32.87
2017-09-26T20:32:56.098Z,32.90
2017-09-26T20:35:23.590Z,32.77
2017-09-26T20:37:51.052Z,38.90
2017-09-26T20:40:18.439Z,39.20
2017-09-26T20:42:45.842Z,38.17
2017-09-26T20:45:13.239Z,43.17
2017-09-26T20:47:40.638Z,42.13
2017-09-26T20:50:08.031Z,43.00
2017-09-26T20:52:35.430Z,50.23
2017-09-26T20:55:02.826Z,38.57
2017-09-26T20:57:30.222Z,40.63
2017-09-26T20:59:57.624Z,45.13
2017-09-26T21:02:25.026Z,47.07
2017-09-26T21:04:52.454Z,46.70
2017-09-26T21:07:19.850Z,49.63
2017-09-26T21:09:47.249Z,52.13
2017-09-26T21:12:14.646Z,50.33
2017-09-26T21:14:42.042Z,50.23
2017-09-26T21:17:09.439Z,46.93
2017-09-26T21:19:36.834Z,49.37
2017-09-26T21:22:04.334Z,42.47
2017-09-26T21:24:31.726Z,43.40
2017-09-26T21:26:59.122Z,43.03
2017-09-26T21:29:26.516Z,42.83
2017-09-26T21:31:53.910Z,43.13
2017-09-26T21:34:21.324Z,40.00
2017-09-26T21:36:48.710Z,43.87
2017-09-26T21:39:16.113Z,46.30
2017-09-26T21:41:43.510Z,43.50
2017-09-26T21:44:10.920Z,45.43
2017-09-26T21:49:12.115Z,46.33
2017-09-26T21:51:39.510Z,45.57
2017-09-26T21:54:06.917Z,48.53
2017-09-26T21:56:34.366Z,51.07
2017-09-26T21:59:01.763Z,47.73
2017-09-26T22:01:29.171Z,51.92
2017-09-26T22:03:56.584Z,52.83
2017-09-26T22:06:24.087Z,49.37
2017-09-26T22:08:51.478Z,50.27
2017-09-26T22:11:18.874Z,50.27
2017-09-26T22:13:46.275Z,46.53
2017-09-26T22:16:13.679Z,47.17
2017-09-26T22:18:41.103Z,46.00
2017-09-26T22:21:08.510Z,48.90
2017-09-26T22:23:35.909Z,48.83
2017-09-26T22:26:03.310Z,49.40
2017-09-26T22:28:30.703Z,45.87
2017-09-26T22:30:58.106Z,44.43
2017-09-26T22:33:25.506Z,48.40
2017-09-26T22:35:52.907Z,50.70
2017-09-26T22:38:20.414Z,49.60
2017-09-26T22:40:47.827Z,47.53
2017-09-26T22:43:15.224Z,53.33
2017-09-26T22:45:42.626Z,40.90
2017-09-26T22:48:10.024Z,61.90
2017-09-26T22:50:37.489Z,50.73
2017-09-26T22:53:13.447Z,46.80
2017-09-26T22:55:40.853Z,40.33
2017-09-26T22:58:08.254Z,40.47
2017-09-26T23:00:35.647Z,47.37
2017-09-26T23:03:03.045Z,44.23
2017-09-26T23:05:30.435Z,40.77
2017-09-26T23:07:57.848Z,45.50
2017-09-26T23:10:25.240Z,41.70
2017-09-26T23:12:52.642Z,46.27
2017-09-26T23:15:20.038Z,48.23
2017-09-26T23:17:47.450Z,51.93
2017-09-26T23:20:14.842Z,43.07
2017-09-26T23:28:27.931Z,44.20
2017-09-26T23:30:55.340Z,35.30
2017-09-26T23:33:22.726Z,33.60
2017-09-26T23:35:50.123Z,40.80
2017-09-26T23:38:17.521Z,35.80
2017-09-26T23:40:44.919Z,27.97
2017-09-26T23:43:12.318Z,30.93
2017-09-26T23:45:39.840Z,25.77
2017-09-26T23:48:07.247Z,30.97
2017-09-26T23:50:34.695Z,38.63
2017-09-26T23:53:02.107Z,37.90
2017-09-26T23:57:56.730Z,48.03
